avis per tempestes more information blitzortung!


avis per Pluja more information rain snow radar


Visita la nostra xarxa de llocs de meteo:

Template documentation
and downloads

And another site



Rain From: 17-08-2018 13:00 Until: 22:59 warning for: Rain Level: Orange info button
Thunderstorms From: 17-08-2018 12:00 Until: 18-08-2018 08:59 warning for: Thunderstorms Level: Yellow info button

Pagina Historial Weather Underground text

Diari Resum Setembre 4, 2017 Unitats:  Mètric    Imperial   Tant
« Previous Dia
SegĂźent Dia »
Diari Setmana Mensual Anual Personalitzada
  Maxima: Minima: Media:
Temperatura: -17.8 °C -7.8 °C -4.9 °C
Punt de rosada: -17.8 °C -9.6 °C -8.7 °C
Humitat: Humidity % 52 % 66 %
Wind Speed: 0 km/h 0 km/h 11.7 km/h
RĂ fegues de vent: 0 km/h - -
Vent:- - East
Pression baro: 0 hPa 34222.3 hPa -
Precipitacions: 0 mm    
Historical Graphs
 
 
Dades de taula per Setembre 4, 2017
Temps Temperatura Punt de rosada Pression baro Vent Wind Speed RĂ fegues de vent Humitat Rainfall Rate (Hourly)
-17.8 °C -17.8 °C 0 hPa Calm     Humidity % 0 mm
00:00 -7.4 °C -8.6 °C 34256.2 hPa Calm   5.1 km/h 87 % 0 mm
00:01 -6.5 °C -9.2 °C 34293.4 hPa ENE 4.2 km/h 4.2 km/h 74 % 0 mm
00:06 -6.5 °C -9.2 °C 34293.4 hPa NE 6.3 km/h 6.3 km/h 74 % 0 mm
00:10 -7.4 °C -8.5 °C 34256.2 hPa Calm   5.1 km/h 88 % 0 mm
00:20 -7.4 °C -8.6 °C 34256.2 hPa Calm     88 % 0 mm
00:30 -7.4 °C -8.6 °C 34256.2 hPa NE 2.6 km/h 2.6 km/h 88 % 0 mm
00:40 -7.5 °C -8.6 °C 34256.2 hPa Calm   5.1 km/h 88 % 0 mm
00:50 -7.5 °C -8.6 °C 34256.2 hPa SW 5.1 km/h 5.1 km/h 88 % 0 mm
01:00 -7.5 °C -8.5 °C 34256.2 hPa Calm   2.6 km/h 89 % 0 mm
01:10 -7.4 °C -8.4 °C 34256.2 hPa Calm   2.6 km/h 89 % 0 mm
01:20 -7.5 °C -8.6 °C 34256.2 hPa North 2.6 km/h 5.1 km/h 88 % 0 mm
01:30 -7.6 °C -8.6 °C 34256.2 hPa WSW 2.6 km/h 5.1 km/h 89 % 0 mm
01:40 -7.5 °C -8.5 °C 34222.3 hPa WSW 2.6 km/h   89 % 0 mm
01:50 -7.5 °C -8.4 °C 34222.3 hPa Calm   2.6 km/h 90 % 0 mm
02:00 -7.4 °C -8.4 °C 34256.2 hPa WNW 2.6 km/h 5.1 km/h 90 % 0 mm
02:10 -7.5 °C -8.4 °C 34256.2 hPa NE 2.6 km/h 5.1 km/h 90 % 0 mm
02:20 -7.5 °C -8.5 °C 34256.2 hPa NNW 2.6 km/h 5.1 km/h 89 % 0 mm
02:30 -7.6 °C -8.5 °C 34256.2 hPa Calm     90 % 0 mm
02:40 -7.6 °C -8.5 °C 34293.4 hPa NNW 2.6 km/h 5.1 km/h 90 % 0 mm
02:50 -7.5 °C -8.3 °C 34293.4 hPa Calm   5.1 km/h 91 % 0 mm
03:00 -7.4 °C -8.3 °C 34256.2 hPa ENE 2.6 km/h 5.1 km/h 91 % 0 mm
03:10 -7.4 °C -8.2 °C 34293.4 hPa Calm     91 % 0 mm
03:20 -7.3 °C -8.2 °C 34293.4 hPa ENE 2.6 km/h 2.6 km/h 91 % 0 mm
03:30 -7.2 °C -8.2 °C 34327.3 hPa NE 2.6 km/h 2.6 km/h 90 % 0 mm
03:40 -7.2 °C -8.2 °C 34327.3 hPa Calm   10.3 km/h 90 % 0 mm
03:50 -7.1 °C -7.9 °C 34327.3 hPa Calm   5.1 km/h 91 % 0 mm
04:00 -7.1 °C -8 °C 34327.3 hPa NNE 2.6 km/h 7.7 km/h 90 % 0 mm
04:10 -7 °C -7.9 °C 34327.3 hPa NE 2.6 km/h 5.1 km/h 90 % 0 mm
04:20 -6.9 °C -7.8 °C 34327.3 hPa Calm   5.1 km/h 90 % 0 mm
04:30 -6.8 °C -7.8 °C 34327.3 hPa Calm   5.1 km/h 90 % 0 mm
04:40 -6.4 °C -7.5 °C 34327.3 hPa Calm   5.1 km/h 89 % 0 mm
04:50 -6.2 °C -7.4 °C 34327.3 hPa ENE 5.1 km/h 10.3 km/h 88 % 0 mm
05:00 -6.2 °C -7.6 °C 34327.3 hPa NE 5.1 km/h 7.7 km/h 86 % 0 mm
05:10 -5.8 °C -7.4 °C 34327.3 hPa NE 5.1 km/h 7.7 km/h 83 % 0 mm
05:20 -5.4 °C -7.2 °C 34327.3 hPa North 2.6 km/h 10.3 km/h 82 % 0 mm
05:30 -5.3 °C -7.6 °C 34327.3 hPa NNE 12.9 km/h 12.9 km/h 78 % 0 mm
05:40 -5.2 °C -7.6 °C 34361.1 hPa NE 5.1 km/h 10.3 km/h 77 % 0 mm
05:50 -5 °C -7.6 °C 34361.1 hPa NE 7.7 km/h 12.9 km/h 75 % 0 mm
05:55 -4.9 °C -7.5 °C 34361.1 hPa ENE 5.1 km/h 12.9 km/h 75 % 0 mm
10:58 -4.8 °C -7.4 °C 34361.1 hPa East 6.3 km/h 6.3 km/h 75 % 0 mm
10:59 -4.8 °C -7.4 °C 34361.1 hPa East 7.6 km/h 7.6 km/h 75 % 0 mm
11:00 -4.7 °C -7.3 °C 34361.1 hPa ESE 9 km/h 9 km/h 75 % 0 mm
11:05 -4.7 °C -7.4 °C 34361.1 hPa ESE 9 km/h 9 km/h 74 % 0 mm
11:10 -4.7 °C -7.6 °C 34361.1 hPa East 9.3 km/h 9.3 km/h 73 % 0 mm
11:15 -4.6 °C -7.4 °C 34361.1 hPa NE 9 km/h 9 km/h 73 % 0 mm
11:20 -4.7 °C -7.9 °C 34361.1 hPa ESE 11.9 km/h 11.9 km/h 70 % 0 mm
11:25 -4.5 °C -7.7 °C 34361.1 hPa NE 9 km/h 9 km/h 70 % 0 mm
11:30 -4.3 °C -7.8 °C 34361.1 hPa NNE 15 km/h 15 km/h 68 % 0 mm
11:35 -4.2 °C -7.9 °C 34361.1 hPa East 9.8 km/h 9.8 km/h 66 % 0 mm
11:40 -4.3 °C -8.2 °C 34361.1 hPa ESE 15 km/h 15 km/h 65 % 0 mm
11:45 -4.3 °C -8.2 °C 34361.1 hPa East 9 km/h 9 km/h 65 % 0 mm
11:50 -4.1 °C -8.2 °C 34361.1 hPa East 15 km/h 15 km/h 64 % 0 mm
11:55 -4.2 °C -8.1 °C 34361.1 hPa NNE 12.7 km/h 12.7 km/h 65 % 0 mm
12:00 -4.2 °C -8.2 °C 34361.1 hPa ESE 15 km/h 15 km/h 64 % 0 mm
12:05 -4.2 °C -8.2 °C 34361.1 hPa ESE 9 km/h 9 km/h 64 % 0 mm
12:10 -4 °C -8.2 °C 34361.1 hPa South 11.9 km/h 11.9 km/h 63 % 0 mm
12:15 -3.9 °C -8.3 °C 34361.1 hPa SE 15.3 km/h 15.3 km/h 62 % 0 mm
12:20 -4 °C -8.2 °C 34361.1 hPa ESE 15.6 km/h 15.6 km/h 63 % 0 mm
12:25 -3.9 °C -8.4 °C 34361.1 hPa ESE 15 km/h 15 km/h 61 % 0 mm
12:30 -3.9 °C -8.5 °C 34361.1 hPa ENE 15 km/h 15 km/h 60 % 0 mm
12:35 -3.4 °C -8 °C 34361.1 hPa ESE 16.1 km/h 16.1 km/h 60 % 0 mm
12:40 -3.5 °C -8 °C 34361.1 hPa ENE 9 km/h 9 km/h 61 % 0 mm
12:45 -3.5 °C -8.3 °C 34361.1 hPa East 20.9 km/h 20.9 km/h 59 % 0 mm
12:50 -3.4 °C -8.6 °C 34361.1 hPa ESE 20.9 km/h 20.9 km/h 57 % 0 mm
12:55 -3.5 °C -8.4 °C 34361.1 hPa SSW 15 km/h 15 km/h 58 % 0 mm
13:00 -3.5 °C -8.4 °C 34361.1 hPa ESE 22 km/h 22 km/h 58 % 0 mm
13:05 -3.5 °C -8.4 °C 34361.1 hPa South 9 km/h 9 km/h 58 % 0 mm
13:10 -3.4 °C -8.4 °C 34361.1 hPa ESE 15 km/h 15 km/h 58 % 0 mm
13:15 -3.2 °C -8.3 °C 34361.1 hPa ESE 17.9 km/h 17.9 km/h 57 % 0 mm
13:20 -3.3 °C -8.4 °C 34361.1 hPa South 6 km/h 6 km/h 57 % 0 mm
13:25 -3.1 °C -8.1 °C 34361.1 hPa ENE 20.9 km/h 20.9 km/h 58 % 0 mm
13:30 -3.2 °C -8.3 °C 34361.1 hPa ESE 11.1 km/h 11.1 km/h 57 % 0 mm
13:35 -3.4 °C -8.5 °C 34361.1 hPa ENE 20.9 km/h 20.9 km/h 57 % 0 mm
13:40 -3.5 °C -8.6 °C 34361.1 hPa ESE 15 km/h 15 km/h 57 % 0 mm
13:45 -3.5 °C -8.4 °C 34361.1 hPa ESE 20.9 km/h 20.9 km/h 58 % 0 mm
13:50 -3.4 °C -8.4 °C 34361.1 hPa ENE 19.6 km/h 19.6 km/h 58 % 0 mm
13:55 -3.3 °C -8.4 °C 34361.1 hPa ESE 23.8 km/h 23.8 km/h 57 % 0 mm
14:00 -3.5 °C -8.7 °C 34361.1 hPa ESE 19.6 km/h 19.6 km/h 56 % 0 mm
14:05 -3.3 °C -8.4 °C 34361.1 hPa ESE 10.3 km/h 10.3 km/h 57 % 0 mm
14:10 -3.5 °C -8.6 °C 34361.1 hPa SE 29.8 km/h 29.8 km/h 57 % 0 mm
14:15 -3.3 °C -8.4 °C 34361.1 hPa SSE 11.9 km/h 11.9 km/h 57 % 0 mm
14:20 -3.2 °C -8.5 °C 34361.1 hPa SE 11.9 km/h 11.9 km/h 56 % 0 mm
14:25 -3.2 °C -8.3 °C 34361.1 hPa SSE 17.9 km/h 17.9 km/h 57 % 0 mm
14:30 -2.9 °C -8.2 °C 34361.1 hPa West 17.9 km/h 17.9 km/h 56 % 0 mm
14:35 -2.7 °C -8.1 °C 34361.1 hPa South 17.9 km/h 17.9 km/h 55 % 0 mm
14:40 -2.6 °C -8.2 °C 34395 hPa South 9.3 km/h 9.3 km/h 54 % 0 mm
14:45 -2.6 °C -8.2 °C 34395 hPa South 17.9 km/h 17.9 km/h 54 % 0 mm
14:50 -2.6 °C -8.2 °C 34395 hPa ESE 14.5 km/h 14.5 km/h 54 % 0 mm
14:55 -2.7 °C -8.4 °C 34395 hPa SW 17.9 km/h 17.9 km/h 53 % 0 mm
15:00 -2.8 °C -8.4 °C 34395 hPa East 35.7 km/h 35.7 km/h 54 % 0 mm
15:05 -2.7 °C -8.5 °C 34395 hPa SSW 15 km/h 15.3 km/h 53 % 0 mm
15:10 -2.7 °C -8.6 °C 34361.1 hPa SSE 20.9 km/h 20.9 km/h 52 % 0 mm
15:15 -2.9 °C -8.7 °C 34361.1 hPa ESE 20.9 km/h 20.9 km/h 53 % 0 mm
15:20 -3 °C -8.8 °C 34361.1 hPa ESE 29.8 km/h 29.8 km/h 53 % 0 mm
15:25 -3.3 °C -9 °C 34361.1 hPa ESE 23.8 km/h 23.8 km/h 53 % 0 mm
15:30 -3.4 °C -9.1 °C 34361.1 hPa ESE 23.8 km/h 23.8 km/h 53 % 0 mm
15:32 -3.4 °C -8.9 °C 34361.1 hPa ESE 20.9 km/h 20.9 km/h 54 % 0 mm
15:37 -3.4 °C -8.9 °C 34361.1 hPa SE 15 km/h 15 km/h 54 % 0 mm
15:42 -3.3 °C -8.9 °C 34361.1 hPa East 23.8 km/h 23.8 km/h 54 % 0 mm
15:47 -3.2 °C -8.8 °C 34361.1 hPa ESE 17.9 km/h 17.9 km/h 54 % 0 mm
15:52 -3.1 °C -8.7 °C 34361.1 hPa SE 16.6 km/h 16.6 km/h 54 % 0 mm
15:57 -3.1 °C -8.7 °C 34395 hPa ESE 15.6 km/h 15.6 km/h 54 % 0 mm
16:02 -3.1 °C -8.7 °C 34395 hPa SSE 15 km/h 15 km/h 54 % 0 mm
16:07 -3.1 °C -8.7 °C 34395 hPa SSE 20.9 km/h 20.9 km/h 54 % 0 mm
16:12 -3.1 °C -8.7 °C 34361.1 hPa East 20.9 km/h 20.9 km/h 54 % 0 mm
16:17 -3.1 °C -8.7 °C 34361.1 hPa SE 15 km/h 15 km/h 54 % 0 mm
16:22 -3.2 °C -8.8 °C 34361.1 hPa SSE 26.9 km/h 26.9 km/h 54 % 0 mm
16:24 -3.2 °C -8.8 °C 34395 hPa ESE 15 km/h 15 km/h 54 % 0 mm
16:29 -3.1 °C -8.7 °C 34395 hPa ESE 17.9 km/h 17.9 km/h 54 % 0 mm
16:34 -3.3 °C -8.9 °C 34395 hPa NNE 23.8 km/h 23.8 km/h 54 % 0 mm
16:39 -3.4 °C -8.9 °C 34361.1 hPa ESE 20.9 km/h 20.9 km/h 54 % 0 mm
16:44 -3.4 °C -8.8 °C 34361.1 hPa ENE 15.6 km/h 15.6 km/h 55 % 0 mm
16:49 -3.3 °C -8.7 °C 34361.1 hPa ESE 15 km/h 15 km/h 55 % 0 mm
16:54 -3.3 °C -8.7 °C 34395 hPa East 15 km/h 15 km/h 55 % 0 mm
16:59 -3.3 °C -8.7 °C 34395 hPa ENE 15 km/h 15 km/h 55 % 0 mm
17:04 -3.6 °C -8.9 °C 34395 hPa ESE 29 km/h 29 km/h 55 % 0 mm
17:09 -3.6 °C -8.8 °C 34395 hPa East 20.9 km/h 20.9 km/h 56 % 0 mm
17:14 -3.6 °C -8.8 °C 34395 hPa ENE 15 km/h 15 km/h 56 % 0 mm
17:19 -3.4 °C -8.7 °C 34395 hPa SSE 20.9 km/h 20.9 km/h 56 % 0 mm
17:24 -3.3 °C -8.7 °C 34395 hPa South 15.6 km/h 15.6 km/h 55 % 0 mm
17:29 -3.3 °C -8.7 °C 34395 hPa SE 23.8 km/h 23.8 km/h 55 % 0 mm
17:34 -3.4 °C -8.8 °C 34395 hPa South 20.9 km/h 20.9 km/h 55 % 0 mm
17:36 -3.3 °C -8.7 °C 34395 hPa ENE 18.3 km/h 18.3 km/h 55 % 0 mm
17:41 -3.3 °C -8.7 °C 34395 hPa West 17.9 km/h 17.9 km/h 55 % 0 mm
17:46 -3.2 °C -8.7 °C 34395 hPa SSE 22.5 km/h 22.5 km/h 55 % 0 mm
17:51 -3.4 °C -8.8 °C 34395 hPa ENE 20.9 km/h 20.9 km/h 55 % 0 mm
17:56 -3.2 °C -8.7 °C 34428.8 hPa ENE 11.9 km/h 11.9 km/h 55 % 0 mm
18:01 -3.6 °C -8.9 °C 34428.8 hPa East 29.8 km/h 29.8 km/h 55 % 0 mm
18:06 -3.6 °C -8.8 °C 34428.8 hPa East 20.9 km/h 20.9 km/h 56 % 0 mm
18:11 -3.8 °C -9 °C 34395 hPa ESE 27.2 km/h 27.2 km/h 56 % 0 mm
18:16 -3.9 °C -8.8 °C 34395 hPa ESE 26.9 km/h 26.9 km/h 58 % 0 mm
18:21 -3.9 °C -8.7 °C 34395 hPa ENE 27.2 km/h 27.2 km/h 59 % 0 mm
18:26 -3.9 °C -8.7 °C 34395 hPa SE 23.8 km/h 23.8 km/h 59 % 0 mm
18:31 -4 °C -8.6 °C 34395 hPa SSE 20.9 km/h 20.9 km/h 60 % 0 mm
18:36 -4.1 °C -8.7 °C 34395 hPa SSE 17.9 km/h 17.9 km/h 60 % 0 mm
18:41 -4 °C -8.6 °C 34428.8 hPa ESE 23.8 km/h 23.8 km/h 60 % 0 mm
18:46 -4 °C -8.8 °C 34428.8 hPa ESE 17.9 km/h 17.9 km/h 59 % 0 mm
18:51 -4 °C -8.8 °C 34428.8 hPa ENE 29.8 km/h 29.8 km/h 59 % 0 mm
18:56 -4.2 °C -8.9 °C 34395 hPa ESE 23.8 km/h 23.8 km/h 59 % 0 mm
19:01 -4.2 °C -8.8 °C 34395 hPa ENE 15 km/h 15 km/h 60 % 0 mm
19:06 -4.3 °C -8.8 °C 34395 hPa East 20.9 km/h 20.9 km/h 60 % 0 mm
19:11 -4.3 °C -8.8 °C 34395 hPa NE 17.9 km/h 17.9 km/h 60 % 0 mm
19:16 -4.4 °C -9 °C 34395 hPa ENE 20.9 km/h 20.9 km/h 60 % 0 mm
19:21 -4.4 °C -9 °C 34395 hPa East 20.9 km/h 20.9 km/h 60 % 0 mm
19:26 -4.4 °C -8.9 °C 34428.8 hPa East 20.9 km/h 20.9 km/h 61 % 0 mm
19:31 -4.4 °C -8.9 °C 34428.8 hPa East 17.9 km/h 17.9 km/h 61 % 0 mm
19:36 -4.5 °C -8.8 °C 34428.8 hPa ESE 15.3 km/h 15.3 km/h 62 % 0 mm
19:41 -4.6 °C -8.8 °C 34428.8 hPa SE 20.9 km/h 20.9 km/h 62 % 0 mm
19:46 -4.6 °C -8.9 °C 34428.8 hPa ESE 12.2 km/h 12.2 km/h 62 % 0 mm
19:51 -4.6 °C -8.9 °C 34428.8 hPa SE 15.3 km/h 15.3 km/h 62 % 0 mm
19:56 -4.7 °C -8.8 °C 34428.8 hPa ESE 15 km/h 15 km/h 63 % 0 mm
20:01 -4.7 °C -8.8 °C 34428.8 hPa ESE 15 km/h 15 km/h 63 % 0 mm
20:02 -4.7 °C -8.8 °C 34428.8 hPa East 12.2 km/h 12.2 km/h 63 % 0 mm
20:07 -4.8 °C -8.9 °C 34428.8 hPa ESE 15 km/h 15 km/h 63 % 0 mm
20:12 -4.8 °C -9 °C 34462.7 hPa ESE 15 km/h 15 km/h 63 % 0 mm
20:17 -4.8 °C -9 °C 34462.7 hPa East 10.3 km/h 10.3 km/h 63 % 0 mm
20:22 -4.9 °C -8.9 °C 34462.7 hPa ESE 11.9 km/h 11.9 km/h 64 % 0 mm
20:27 -5 °C -9 °C 34462.7 hPa ENE 9 km/h 9 km/h 64 % 0 mm
20:32 -5 °C -9 °C 34462.7 hPa East 9 km/h 9 km/h 64 % 0 mm
20:37 -5.1 °C -9.1 °C 34462.7 hPa ESE 9 km/h 9 km/h 64 % 0 mm
20:42 -5.1 °C -9.1 °C 34462.7 hPa ENE 12.2 km/h 12.2 km/h 64 % 0 mm
20:47 -5.2 °C -9.1 °C 34462.7 hPa NE 6 km/h 6 km/h 64 % 0 mm
20:52 -5.2 °C -9.2 °C 34462.7 hPa ENE 6.3 km/h 6.3 km/h 64 % 0 mm
20:57 -5.2 °C -9.1 °C 34462.7 hPa ENE 9 km/h 9 km/h 65 % 0 mm
21:02 -5.3 °C -9.1 °C 34462.7 hPa NNE 6 km/h 6 km/h 65 % 0 mm
21:07 -5.3 °C -9.2 °C 34428.8 hPa ENE 11.9 km/h 11.9 km/h 65 % 0 mm
21:12 -5.3 °C -9.2 °C 34428.8 hPa ENE 6.8 km/h 6.8 km/h 65 % 0 mm
21:17 -5.4 °C -9.2 °C 34428.8 hPa ENE 9 km/h 9 km/h 65 % 0 mm
21:22 -5.4 °C -9.2 °C 34462.7 hPa NE 11.9 km/h 11.9 km/h 65 % 0 mm
21:27 -5.4 °C -9.1 °C 34462.7 hPa NNE 6.3 km/h 6.3 km/h 66 % 0 mm
21:32 -5.5 °C -9.2 °C 34462.7 hPa East 9 km/h 9 km/h 66 % 0 mm
21:37 -5.6 °C -9.3 °C 34462.7 hPa ESE 9 km/h 9 km/h 66 % 0 mm
21:42 -5.6 °C -9.3 °C 34462.7 hPa NNE 9 km/h 9 km/h 66 % 0 mm
21:47 -5.6 °C -9.3 °C 34462.7 hPa ENE 6.8 km/h 6.8 km/h 66 % 0 mm
21:52 -5.6 °C -9.3 °C 34496.6 hPa NE 8 km/h 8 km/h 66 % 0 mm
21:57 -5.6 °C -9.2 °C 34496.6 hPa NE 6.3 km/h 6.3 km/h 67 % 0 mm
22:02 -5.6 °C -9.2 °C 34496.6 hPa NE 6 km/h 6 km/h 67 % 0 mm
22:07 -5.6 °C -9.1 °C 34496.6 hPa NNE 7.6 km/h 7.6 km/h 68 % 0 mm
22:12 -5.6 °C -9.1 °C 34496.6 hPa NE 6 km/h 6 km/h 68 % 0 mm
22:17 -5.7 °C -9.1 °C 34496.6 hPa ENE 6 km/h 6 km/h 68 % 0 mm
22:22 -5.7 °C -9.1 °C 34496.6 hPa NNE 3.1 km/h   68 % 0 mm
22:27 -5.7 °C -9.1 °C 34496.6 hPa NNE 3.1 km/h 3.1 km/h 68 % 0 mm
22:32 -5.8 °C -9.1 °C 34496.6 hPa NNE 6 km/h 6 km/h 69 % 0 mm
22:37 -5.8 °C -9.1 °C 34496.6 hPa Calm     69 % 0 mm
22:42 -5.8 °C -9.1 °C 34496.6 hPa NNE 3.1 km/h   69 % 0 mm
22:47 -5.9 °C -9.2 °C 34496.6 hPa NNE 6 km/h   69 % 0 mm
22:52 -5.9 °C -9.2 °C 34496.6 hPa NNE 3.1 km/h   69 % 0 mm
22:57 -5.9 °C -9.2 °C 34496.6 hPa Calm     69 % 0 mm
23:02 -6 °C -9.2 °C 34496.6 hPa North 3.1 km/h   70 % 0 mm
23:07 -6.1 °C -9.2 °C 34533.8 hPa Calm     70 % 0 mm
23:12 -6.1 °C -9.3 °C 34533.8 hPa NNE 3.1 km/h 3.1 km/h 70 % 0 mm
23:17 -6.2 °C -9.3 °C 34533.8 hPa Calm     70 % 0 mm
23:20 -7.7 °C -9.6 °C 34496.6 hPa Calm     81 % 0 mm
23:22 -6.2 °C -9.3 °C 34533.8 hPa Calm     71 % 0 mm
23:27 -6.2 °C -9.3 °C 34533.8 hPa NNE 3.1 km/h   71 % 0 mm
23:30 -7.7 °C -9.6 °C 34496.6 hPa Calm     81 % 0 mm
23:32 -6.3 °C -9.3 °C 34533.8 hPa Calm     71 % 0 mm
23:37 -6.3 °C -9.3 °C 34496.6 hPa Calm     71 % 0 mm
23:40 -7.8 °C -9.6 °C 34533.8 hPa Calm     81 % 0 mm
23:42 -6.4 °C -9.4 °C 34496.6 hPa North 3.1 km/h 3.1 km/h 71 % 0 mm
23:47 -6.4 °C -9.4 °C 34496.6 hPa Calm     71 % 0 mm
23:52 -6.4 °C -9.4 °C 34533.8 hPa Calm     71 % 0 mm
23:57 -6.4 °C -9.3 °C 34533.8 hPa Calm     72 % 0 mm
Meteo Sesrovires
Elogis d' Weather Underground - 2 mb

Guio original per  Jim McMurry - jmcmurry@mwt.net Adaptat per a la plantilla per  Wim van der Kuil - Leuven-Template.eu

Trobareu la nostra informacio del temps tambe a:

Weather Underground

AWEKAS